createdAt,value
2019-03-15T00:01:42.326Z,82.89
2019-03-15T00:04:11.120Z,82.49
2019-03-15T00:06:39.905Z,82.15
2019-03-15T00:09:08.985Z,82.02
2019-03-15T00:11:37.504Z,82.18
2019-03-15T00:14:06.493Z,81.45
2019-03-15T00:16:35.099Z,81.80
2019-03-15T00:19:03.772Z,81.79
2019-03-15T00:21:32.295Z,81.77
2019-03-15T00:24:00.886Z,81.78
2019-03-15T00:26:29.418Z,81.86
2019-03-15T00:28:57.858Z,81.60
2019-03-15T00:31:26.303Z,81.66
2019-03-15T00:33:54.745Z,81.57
2019-03-15T00:36:23.470Z,81.67
2019-03-15T00:38:51.976Z,81.77
2019-03-15T00:41:20.488Z,81.79
2019-03-15T00:43:49.605Z,81.79
2019-03-15T00:46:18.391Z,81.89
2019-03-15T00:48:46.877Z,81.83
2019-03-15T00:51:15.323Z,81.84
2019-03-15T00:53:43.771Z,81.76
2019-03-15T00:56:12.315Z,81.89
2019-03-15T00:58:40.759Z,81.66
2019-03-15T01:01:09.610Z,81.52
2019-03-15T01:03:38.106Z,81.35
2019-03-15T01:06:06.615Z,81.16
2019-03-15T01:08:35.127Z,81.09
2019-03-15T01:11:04.032Z,81.13
2019-03-15T01:13:32.476Z,80.89
2019-03-15T01:16:00.944Z,80.95
2019-03-15T01:18:29.390Z,80.97
2019-03-15T01:20:57.926Z,80.98
2019-03-15T01:23:26.366Z,80.98
2019-03-15T01:25:54.929Z,81.11
2019-03-15T01:28:23.473Z,81.26
2019-03-15T01:30:52.004Z,81.36
2019-03-15T01:33:20.457Z,81.41
2019-03-15T01:35:48.930Z,81.33
2019-03-15T01:38:17.443Z,80.97
2019-03-15T01:40:48.682Z,81.08
2019-03-15T01:43:16.160Z,80.99
2019-03-15T01:45:44.703Z,80.69
2019-03-15T01:48:13.150Z,80.32
2019-03-15T01:50:41.616Z,80.03
2019-03-15T01:53:10.179Z,80.07
2019-03-15T01:55:38.617Z,80.12
2019-03-15T01:58:07.221Z,80.29
2019-03-15T02:00:35.805Z,80.18
2019-03-15T02:03:04.381Z,80.22
2019-03-15T02:05:32.846Z,80.17
2019-03-15T02:08:01.464Z,80.28
2019-03-15T02:10:29.922Z,80.42
2019-03-15T02:12:58.369Z,80.55
2019-03-15T02:15:26.923Z,80.70
2019-03-15T02:17:55.459Z,80.92
2019-03-15T02:20:23.904Z,81.02
2019-03-15T02:22:52.349Z,81.14
2019-03-15T02:25:20.797Z,81.10
2019-03-15T02:27:49.443Z,81.15
2019-03-15T02:30:17.917Z,81.07
2019-03-15T02:32:46.363Z,81.22
2019-03-15T02:35:15.056Z,81.34
2019-03-15T02:37:43.757Z,81.37
2019-03-15T02:40:12.837Z,81.55
2019-03-15T02:42:41.563Z,81.53
2019-03-15T02:45:10.305Z,81.46
2019-03-15T02:47:38.741Z,81.51
2019-03-15T02:50:08.354Z,81.58
2019-03-15T02:52:36.945Z,81.59
2019-03-15T02:55:06.646Z,81.56
2019-03-15T02:57:35.714Z,81.53
2019-03-15T03:00:06.515Z,81.50
2019-03-15T03:02:34.935Z,81.60
2019-03-15T03:05:04.557Z,81.55
2019-03-15T03:07:33.006Z,81.64
2019-03-15T03:10:02.271Z,81.80
2019-03-15T03:12:31.075Z,81.82
2019-03-15T03:14:59.550Z,81.83
2019-03-15T03:17:27.984Z,82.00
2019-03-15T03:19:56.459Z,82.03
2019-03-15T03:22:24.901Z,82.10
2019-03-15T03:24:53.418Z,82.01
2019-03-15T03:27:21.859Z,81.97
2019-03-15T03:29:50.344Z,81.97
2019-03-15T03:32:18.835Z,82.00
2019-03-15T03:34:47.296Z,82.06
2019-03-15T03:37:15.803Z,81.96
2019-03-15T03:39:44.271Z,82.12
2019-03-15T03:42:12.869Z,81.91
2019-03-15T03:44:41.310Z,81.94
2019-03-15T03:47:09.755Z,81.93
2019-03-15T03:49:38.232Z,81.84
2019-03-15T03:52:06.809Z,81.87
2019-03-15T03:54:35.429Z,81.79
2019-03-15T03:57:04.818Z,81.80
2019-03-15T03:59:33.531Z,81.80
2019-03-15T04:02:02.122Z,81.79
2019-03-15T04:04:30.567Z,81.66
2019-03-15T04:06:59.009Z,81.63
2019-03-15T04:09:27.547Z,81.70
2019-03-15T04:11:56.446Z,81.65
2019-03-15T04:14:24.971Z,81.78
2019-03-15T04:16:53.521Z,81.90
2019-03-15T04:19:21.971Z,81.87
2019-03-15T04:21:50.489Z,82.02
2019-03-15T04:24:19.562Z,81.94
2019-03-15T04:26:48.022Z,81.89
2019-03-15T04:29:16.567Z,81.87
2019-03-15T04:31:45.021Z,81.83
2019-03-15T04:34:13.499Z,81.76
2019-03-15T04:36:42.277Z,81.71
2019-03-15T04:39:13.801Z,81.70
2019-03-15T04:41:40.997Z,81.71
2019-03-15T04:44:09.444Z,81.81
2019-03-15T04:46:37.993Z,81.92
2019-03-15T04:49:06.477Z,81.79
2019-03-15T04:51:35.007Z,81.84
2019-03-15T04:54:05.684Z,81.85
2019-03-15T04:56:33.789Z,81.98
2019-03-15T04:59:02.322Z,82.28
2019-03-15T05:01:30.852Z,82.59
2019-03-15T05:03:59.371Z,82.96
2019-03-15T05:06:27.886Z,83.18
2019-03-15T05:08:56.333Z,83.43
2019-03-15T05:11:24.806Z,83.50
2019-03-15T05:13:53.264Z,83.54
2019-03-15T05:16:21.698Z,83.52
2019-03-15T05:18:50.239Z,83.54
2019-03-15T05:21:18.680Z,83.68
2019-03-15T05:23:47.158Z,83.75
2019-03-15T05:26:15.615Z,83.83
2019-03-15T05:28:44.130Z,83.84
2019-03-15T05:31:12.574Z,83.75
2019-03-15T05:33:41.100Z,83.78
2019-03-15T05:36:09.553Z,83.78
2019-03-15T05:38:38.000Z,83.69
2019-03-15T05:41:06.437Z,83.73
2019-03-15T05:43:34.887Z,83.63
2019-03-15T05:46:03.521Z,83.66
2019-03-15T05:48:31.983Z,83.66
2019-03-15T05:51:00.430Z,83.69
2019-03-15T05:53:28.870Z,83.87
2019-03-15T05:55:57.314Z,83.86
2019-03-15T05:58:25.843Z,84.04
2019-03-15T06:00:54.364Z,84.19
2019-03-15T06:03:22.810Z,84.32
2019-03-15T06:05:51.263Z,84.53
2019-03-15T06:08:19.712Z,84.59
2019-03-15T06:10:48.154Z,84.81
2019-03-15T06:13:16.698Z,84.95
2019-03-15T06:15:45.145Z,84.94
2019-03-15T06:18:13.603Z,84.94
2019-03-15T06:20:42.081Z,84.88
2019-03-15T06:23:10.525Z,84.85
2019-03-15T06:25:39.120Z,84.97
2019-03-15T06:28:07.583Z,85.07
2019-03-15T06:30:36.011Z,85.09
2019-03-15T06:33:04.542Z,85.23
2019-03-15T06:35:32.973Z,85.23
2019-03-15T06:38:01.488Z,85.48
2019-03-15T06:40:30.201Z,85.67
2019-03-15T06:42:58.661Z,85.87
2019-03-15T06:45:27.259Z,86.11
2019-03-15T06:47:55.891Z,86.31
2019-03-15T06:50:24.410Z,86.63
2019-03-15T06:52:52.997Z,87.09
2019-03-15T06:55:21.436Z,87.51
2019-03-15T06:57:49.880Z,87.71
2019-03-15T07:00:18.324Z,88.23
2019-03-15T07:02:46.965Z,88.41
2019-03-15T07:05:15.551Z,88.77
2019-03-15T07:07:44.131Z,89.20
2019-03-15T07:10:13.010Z,89.60
2019-03-15T07:12:41.547Z,89.61
2019-03-15T07:15:11.666Z,90.16
2019-03-15T07:17:40.159Z,90.35
2019-03-15T07:20:18.973Z,90.67
2019-03-15T07:22:47.478Z,90.99
2019-03-15T07:25:16.063Z,91.41
2019-03-15T07:27:44.813Z,91.82
2019-03-15T07:30:15.259Z,92.23
2019-03-15T07:32:43.883Z,92.42
2019-03-15T07:35:12.386Z,92.80
2019-03-15T07:37:40.930Z,92.96
2019-03-15T07:40:11.695Z,93.30
2019-03-15T07:42:40.165Z,93.68
2019-03-15T07:45:10.451Z,93.59
2019-03-15T07:47:38.908Z,93.90
2019-03-15T07:50:14.410Z,94.11
2019-03-15T07:52:43.246Z,94.59
2019-03-15T07:55:12.132Z,94.94
2019-03-15T07:57:40.581Z,94.81
2019-03-15T08:00:16.654Z,95.34
2019-03-15T08:02:45.246Z,95.54
2019-03-15T08:05:13.959Z,95.71
2019-03-15T08:07:45.552Z,96.13
2019-03-15T08:10:13.326Z,96.01
2019-03-15T08:12:42.034Z,96.41
2019-03-15T08:15:11.934Z,96.79
2019-03-15T08:17:40.660Z,97.07
2019-03-15T08:20:14.131Z,97.25
2019-03-15T08:22:42.645Z,97.69
2019-03-15T08:25:12.130Z,97.69
2019-03-15T08:27:40.572Z,98.21
2019-03-15T08:30:12.093Z,98.10
2019-03-15T08:32:43.325Z,98.33
2019-03-15T08:35:11.878Z,98.55
2019-03-15T08:37:40.565Z,98.23
2019-03-15T08:40:15.951Z,98.94
2019-03-15T08:42:44.532Z,98.74
2019-03-15T08:45:17.983Z,99.31
2019-03-15T08:47:46.562Z,99.46
2019-03-15T08:50:17.124Z,99.68
2019-03-15T08:52:45.661Z,99.86
2019-03-15T08:55:14.547Z,99.84
2019-03-15T08:57:42.993Z,99.89
2019-03-15T09:00:18.495Z,99.94
2019-03-15T09:02:47.003Z,100.00
2019-03-15T09:05:18.933Z,100.00
2019-03-15T09:07:47.417Z,100.00
2019-03-15T09:10:23.337Z,100.00
2019-03-15T09:12:48.326Z,100.00
2019-03-15T09:15:16.938Z,100.00
2019-03-15T09:17:45.524Z,100.00
2019-03-15T09:20:15.371Z,100.00
2019-03-15T09:22:43.842Z,100.00
2019-03-15T09:25:19.808Z,100.00
2019-03-15T09:27:45.589Z,100.00
2019-03-15T09:30:23.017Z,100.00
2019-03-15T09:32:45.581Z,100.00
2019-03-15T09:35:14.198Z,100.00
2019-03-15T09:37:42.727Z,100.00
2019-03-15T09:40:15.870Z,100.00
2019-03-15T09:42:44.342Z,100.00
2019-03-15T09:45:17.982Z,100.00
2019-03-15T09:47:46.746Z,100.00
2019-03-15T09:50:26.457Z,100.00
2019-03-15T09:52:46.281Z,100.00
2019-03-15T09:55:15.029Z,100.00
2019-03-15T09:57:43.515Z,100.00
2019-03-15T10:00:16.774Z,100.00
2019-03-15T10:02:45.280Z,100.00
2019-03-15T10:05:14.016Z,100.00
2019-03-15T10:07:43.809Z,100.00
2019-03-15T10:10:18.274Z,100.00
2019-03-15T10:12:46.079Z,100.00
2019-03-15T10:15:15.358Z,100.00
2019-03-15T10:17:43.808Z,100.00
2019-03-15T10:20:13.189Z,100.00
2019-03-15T10:22:41.740Z,100.00
2019-03-15T10:25:17.694Z,100.00
2019-03-15T10:27:46.232Z,100.00
2019-03-15T10:30:19.514Z,100.00
2019-03-15T10:32:48.004Z,100.00
2019-03-15T10:35:16.614Z,100.00
2019-03-15T10:37:45.105Z,100.00
2019-03-15T10:40:24.243Z,100.00
2019-03-15T10:42:55.553Z,100.00
2019-03-15T10:45:23.224Z,100.00
2019-03-15T10:47:51.681Z,100.00
2019-03-15T10:50:20.435Z,100.00
2019-03-15T10:52:48.876Z,100.00
2019-03-15T10:55:20.575Z,100.00
2019-03-15T10:57:47.576Z,100.00
2019-03-15T11:00:22.377Z,100.00
2019-03-15T11:02:50.924Z,100.00
2019-03-15T11:05:19.424Z,100.00
2019-03-15T11:07:47.963Z,100.00
2019-03-15T11:10:16.498Z,100.00
2019-03-15T11:12:45.014Z,100.00
2019-03-15T11:15:16.983Z,100.00
2019-03-15T11:17:45.417Z,100.00
2019-03-15T11:20:14.349Z,100.00
2019-03-15T11:22:42.863Z,100.00
2019-03-15T11:25:12.076Z,100.00
2019-03-15T11:27:40.629Z,100.00
2019-03-15T11:30:11.606Z,100.00
2019-03-15T11:32:40.181Z,100.00
2019-03-15T11:35:09.790Z,100.00
2019-03-15T11:37:38.315Z,100.00
2019-03-15T11:40:18.890Z,100.00
2019-03-15T11:42:46.404Z,100.00
2019-03-15T11:45:15.220Z,99.14
2019-03-15T11:48:01.820Z,98.38
2019-03-15T11:50:18.024Z,97.80
2019-03-15T11:52:46.592Z,96.73
2019-03-15T11:55:15.142Z,96.61
2019-03-15T11:57:43.641Z,96.22
2019-03-15T12:00:16.323Z,95.42
2019-03-15T12:02:44.896Z,94.83
2019-03-15T12:05:14.175Z,94.64
2019-03-15T12:07:42.688Z,93.60
2019-03-15T12:10:12.787Z,93.58
2019-03-15T12:12:41.225Z,92.20
2019-03-15T12:15:11.898Z,92.02
2019-03-15T12:17:40.364Z,93.16
2019-03-15T12:20:12.436Z,93.77
2019-03-15T12:22:40.894Z,94.95
2019-03-15T12:25:10.387Z,96.11
2019-03-15T12:27:38.836Z,96.14
2019-03-15T12:30:15.252Z,96.37
2019-03-15T12:32:43.789Z,96.34
2019-03-15T12:35:13.210Z,95.65
2019-03-15T12:37:41.685Z,94.93
2019-03-15T12:40:17.792Z,94.52
2019-03-15T12:42:46.301Z,93.83
2019-03-15T12:45:15.486Z,93.58
2019-03-15T12:47:44.145Z,93.54
2019-03-15T12:50:16.236Z,93.04
2019-03-15T12:52:48.698Z,92.50
2019-03-15T12:55:15.456Z,91.97
2019-03-15T12:57:44.131Z,91.69
2019-03-15T13:00:14.841Z,91.37
2019-03-15T13:02:43.371Z,90.73
2019-03-15T13:05:11.929Z,90.64
2019-03-15T13:07:40.445Z,90.05
2019-03-15T13:10:11.713Z,89.32
2019-03-15T13:12:40.151Z,89.17
2019-03-15T13:15:11.300Z,87.79
2019-03-15T13:17:39.820Z,87.53
2019-03-15T13:20:10.868Z,87.24
2019-03-15T13:22:39.344Z,86.69
2019-03-15T13:25:09.856Z,86.39
2019-03-15T13:27:38.306Z,86.95
2019-03-15T13:30:09.681Z,86.98
2019-03-15T13:32:38.375Z,86.73
2019-03-15T13:35:07.940Z,86.28
2019-03-15T13:37:36.397Z,86.42
2019-03-15T13:40:07.900Z,86.19
2019-03-15T13:42:36.407Z,86.11
2019-03-15T13:45:07.444Z,86.01
2019-03-15T13:47:35.915Z,85.71
2019-03-15T13:50:06.635Z,85.82
2019-03-15T13:52:35.082Z,85.51
2019-03-15T13:55:03.895Z,85.21
2019-03-15T13:57:32.370Z,84.94
2019-03-15T14:00:00.796Z,85.51
2019-03-15T14:02:29.251Z,86.71
2019-03-15T14:04:57.692Z,88.18
2019-03-15T14:07:26.152Z,89.70
2019-03-15T14:09:54.587Z,91.12
2019-03-15T14:12:23.152Z,92.21
2019-03-15T14:14:51.678Z,92.84
2019-03-15T14:17:20.121Z,93.37
2019-03-15T14:19:48.559Z,93.70
2019-03-15T14:22:17.084Z,94.05
2019-03-15T14:24:45.578Z,94.52
2019-03-15T14:27:14.129Z,94.51
2019-03-15T14:29:42.569Z,94.70
2019-03-15T14:32:11.031Z,94.53
2019-03-15T14:34:39.540Z,94.39
2019-03-15T14:37:10.311Z,93.87
2019-03-15T14:39:38.246Z,93.20
2019-03-15T14:42:06.892Z,92.52
2019-03-15T14:44:35.379Z,91.82
2019-03-15T14:47:03.953Z,91.56
2019-03-15T14:49:32.398Z,91.67
2019-03-15T14:52:00.829Z,91.82
2019-03-15T14:54:29.263Z,91.31
2019-03-15T14:56:57.858Z,91.68
2019-03-15T14:59:26.334Z,91.65
2019-03-15T15:01:54.998Z,91.57
2019-03-15T15:04:23.617Z,91.60
2019-03-15T15:06:52.048Z,91.87
2019-03-15T15:09:20.556Z,92.44
2019-03-15T15:11:49.017Z,92.80
2019-03-15T15:14:17.557Z,92.73
2019-03-15T15:16:45.993Z,92.33
2019-03-15T15:19:14.435Z,92.10
2019-03-15T15:21:42.905Z,92.37
2019-03-15T15:24:11.385Z,92.23
2019-03-15T15:26:39.826Z,91.99
2019-03-15T15:29:08.265Z,91.93
2019-03-15T15:31:36.822Z,91.65
2019-03-15T15:34:05.388Z,91.87
2019-03-15T15:36:33.830Z,93.09
2019-03-15T15:39:02.316Z,93.69
2019-03-15T15:41:30.755Z,94.45
2019-03-15T15:43:59.267Z,94.81
2019-03-15T15:46:27.765Z,95.25
2019-03-15T15:48:56.268Z,95.39
2019-03-15T15:51:24.717Z,95.34
2019-03-15T15:53:53.184Z,95.33
2019-03-15T15:56:21.612Z,95.55
2019-03-15T15:58:50.204Z,95.73
2019-03-15T16:01:18.639Z,96.80
2019-03-15T16:03:47.149Z,97.61
2019-03-15T16:06:16.478Z,98.77
2019-03-15T16:08:44.919Z,99.50
2019-03-15T16:11:13.429Z,100.00
2019-03-15T16:13:41.875Z,100.00
2019-03-15T16:16:10.339Z,100.00
2019-03-15T16:18:38.848Z,100.00
2019-03-15T16:21:07.391Z,100.00
2019-03-15T16:23:36.044Z,100.00
2019-03-15T16:26:04.561Z,100.00
2019-03-15T16:28:36.014Z,100.00
2019-03-15T16:31:03.221Z,99.10
2019-03-15T16:33:31.657Z,98.44
2019-03-15T16:36:00.094Z,98.00
2019-03-15T16:38:28.514Z,97.93
2019-03-15T16:40:56.942Z,98.38
2019-03-15T16:43:25.379Z,98.76
2019-03-15T16:45:53.840Z,99.44
2019-03-15T16:48:22.267Z,100.00
2019-03-15T16:50:51.987Z,100.00
2019-03-15T16:53:20.533Z,100.00
2019-03-15T16:55:49.076Z,100.00
2019-03-15T16:58:17.575Z,100.00
2019-03-15T17:00:46.076Z,100.00
2019-03-15T17:03:14.512Z,100.00
2019-03-15T17:05:42.956Z,99.67
2019-03-15T17:08:11.393Z,99.00
2019-03-15T17:10:39.820Z,98.48
2019-03-15T17:13:08.424Z,98.71
2019-03-15T17:15:37.030Z,98.42
2019-03-15T17:18:05.461Z,98.46
2019-03-15T17:20:33.894Z,97.47
2019-03-15T17:23:02.414Z,97.01
2019-03-15T17:25:30.845Z,95.91
2019-03-15T17:27:59.318Z,96.50
2019-03-15T17:30:28.149Z,96.66
2019-03-15T17:32:56.576Z,96.39
2019-03-15T17:35:25.010Z,96.09
2019-03-15T17:37:53.551Z,96.10
2019-03-15T17:40:22.332Z,95.82
2019-03-15T17:42:50.832Z,95.65
2019-03-15T17:45:19.339Z,95.80
2019-03-15T17:47:48.103Z,96.05
2019-03-15T17:50:17.774Z,96.19
2019-03-15T17:52:46.328Z,95.72
2019-03-15T17:55:16.475Z,95.99
2019-03-15T17:57:45.824Z,95.82
2019-03-15T18:00:24.895Z,95.60
2019-03-15T18:02:53.341Z,95.63
2019-03-15T18:05:22.137Z,95.75
2019-03-15T18:07:50.700Z,95.97
2019-03-15T18:10:19.137Z,95.88
2019-03-15T18:12:47.641Z,95.92
2019-03-15T18:15:16.185Z,96.11
2019-03-15T18:17:44.701Z,96.45
2019-03-15T18:20:13.305Z,96.81
2019-03-15T18:22:41.763Z,97.06
2019-03-15T18:25:11.033Z,96.91
2019-03-15T18:27:39.661Z,97.25
2019-03-15T18:30:15.899Z,97.11
2019-03-15T18:32:44.493Z,97.13
2019-03-15T18:35:13.663Z,97.24
2019-03-15T18:37:42.290Z,97.15
2019-03-15T18:40:12.811Z,97.40
2019-03-15T18:42:41.261Z,97.55
2019-03-15T18:45:12.041Z,97.77
2019-03-15T18:47:40.611Z,98.02
2019-03-15T18:50:15.290Z,97.95
2019-03-15T18:52:43.783Z,98.01
2019-03-15T18:55:12.411Z,97.98
2019-03-15T18:57:40.941Z,97.88
2019-03-15T19:00:14.753Z,97.90
2019-03-15T19:02:43.327Z,97.91
2019-03-15T19:05:12.024Z,98.12
2019-03-15T19:07:40.559Z,98.09
2019-03-15T19:10:15.938Z,98.10
2019-03-15T19:12:44.648Z,98.28
2019-03-15T19:15:17.988Z,98.53
2019-03-15T19:17:46.484Z,98.44
2019-03-15T19:20:16.034Z,98.34
2019-03-15T19:22:44.541Z,97.83
2019-03-15T19:25:14.145Z,97.36
2019-03-15T19:27:42.751Z,96.86
2019-03-15T19:30:15.984Z,96.53
2019-03-15T19:32:44.460Z,96.33
2019-03-15T19:35:12.987Z,96.24
2019-03-15T19:37:41.586Z,96.26
2019-03-15T19:40:17.857Z,95.98
2019-03-15T19:42:46.366Z,95.69
2019-03-15T19:45:15.737Z,96.12
2019-03-15T19:47:44.338Z,95.87
2019-03-15T19:50:17.519Z,95.85
2019-03-15T19:52:46.029Z,95.86
2019-03-15T19:55:15.235Z,95.38
2019-03-15T19:57:43.808Z,95.31
2019-03-15T20:00:14.789Z,95.00
2019-03-15T20:02:43.588Z,95.02
2019-03-15T20:05:12.449Z,95.00
2019-03-15T20:07:41.093Z,94.93
2019-03-15T20:10:15.658Z,94.74
2019-03-15T20:12:42.639Z,94.65
2019-03-15T20:15:16.337Z,94.54
2019-03-15T20:17:44.116Z,94.45
2019-03-15T20:20:14.741Z,93.94
2019-03-15T20:22:43.590Z,93.94
2019-03-15T20:25:14.408Z,94.16
2019-03-15T20:27:42.976Z,94.21
2019-03-15T20:30:21.564Z,94.44
2019-03-15T20:32:47.199Z,94.38
2019-03-15T20:35:16.011Z,94.37
2019-03-15T20:37:44.669Z,94.36
2019-03-15T20:40:16.530Z,94.26
2019-03-15T20:42:45.308Z,94.10
2019-03-15T20:45:28.253Z,93.87
2019-03-15T20:47:56.854Z,94.13
2019-03-15T20:50:25.590Z,93.94
2019-03-15T20:53:07.219Z,94.01
2019-03-15T20:55:28.461Z,94.09
2019-03-15T20:57:55.387Z,93.84
2019-03-15T21:00:34.704Z,94.08
2019-03-15T21:02:55.203Z,94.22
2019-03-15T21:05:24.434Z,94.00
2019-03-15T21:07:53.154Z,93.97
2019-03-15T21:10:21.858Z,94.06
2019-03-15T21:12:50.414Z,94.48
2019-03-15T21:15:18.851Z,94.88
2019-03-15T21:17:47.370Z,94.82
2019-03-15T21:20:17.113Z,94.76
2019-03-15T21:22:45.642Z,94.66
2019-03-15T21:25:14.333Z,94.37
2019-03-15T21:27:53.097Z,93.79
2019-03-15T21:30:15.466Z,93.22
2019-03-15T21:32:44.181Z,92.87
2019-03-15T21:35:12.760Z,92.74
2019-03-15T21:37:41.357Z,92.48
2019-03-15T21:40:20.462Z,92.39
2019-03-15T21:42:48.964Z,92.25
2019-03-15T21:45:17.666Z,92.16
2019-03-15T21:47:46.191Z,91.68
2019-03-15T21:50:24.723Z,91.48
2019-03-15T21:52:53.155Z,91.58
2019-03-15T21:55:21.660Z,91.32
2019-03-15T21:57:50.167Z,91.67
2019-03-15T22:00:19.760Z,91.21
2019-03-15T22:02:48.437Z,90.80
2019-03-15T22:05:16.826Z,90.75
2019-03-15T22:07:45.284Z,90.68
2019-03-15T22:10:15.801Z,90.28
2019-03-15T22:12:44.494Z,90.39
2019-03-15T22:15:13.671Z,89.91
2019-03-15T22:17:42.675Z,89.86
2019-03-15T22:20:14.383Z,89.79
2019-03-15T22:22:42.884Z,89.08
2019-03-15T22:25:11.456Z,89.02
2019-03-15T22:27:39.891Z,89.00
2019-03-15T22:30:15.256Z,88.58
2019-03-15T22:32:43.831Z,88.80
2019-03-15T22:35:12.526Z,87.93
2019-03-15T22:37:41.061Z,87.94
2019-03-15T22:40:11.079Z,88.01
2019-03-15T22:42:39.578Z,87.80
2019-03-15T22:45:12.355Z,87.86
2019-03-15T22:47:40.860Z,87.80
2019-03-15T22:50:10.730Z,87.73
2019-03-15T22:52:39.194Z,87.93
2019-03-15T22:55:09.063Z,87.57
2019-03-15T22:57:37.715Z,88.01
2019-03-15T23:00:12.144Z,87.80
2019-03-15T23:02:41.063Z,87.85
2019-03-15T23:05:09.630Z,88.00
2019-03-15T23:07:38.148Z,87.92
2019-03-15T23:10:08.947Z,87.75
2019-03-15T23:12:37.448Z,87.58
2019-03-15T23:15:08.381Z,87.78
2019-03-15T23:17:36.812Z,87.69
2019-03-15T23:20:07.576Z,87.97
2019-03-15T23:22:36.101Z,87.84
2019-03-15T23:25:06.074Z,87.92
2019-03-15T23:27:34.506Z,87.74
2019-03-15T23:30:03.104Z,87.58
2019-03-15T23:32:32.681Z,88.00
2019-03-15T23:35:01.128Z,87.85
2019-03-15T23:37:29.580Z,87.65
2019-03-15T23:39:58.007Z,87.83
2019-03-15T23:42:26.533Z,87.82
2019-03-15T23:44:55.003Z,87.47
2019-03-15T23:47:23.433Z,87.55
2019-03-15T23:49:51.876Z,87.44
2019-03-15T23:52:20.638Z,87.47
2019-03-15T23:54:49.096Z,87.25
2019-03-15T23:57:17.623Z,87.14
2019-03-15T23:59:46.029Z,87.47
